ノヴォシビルスク の空港の天気 - METARとTAF

トルマチェヴォ空港(ノヴォシビルスク) ( UNNT / OVB ) - ロシア ノヴォシビルスク
飛行場実況気象(Metar)
観測時間02/28 06:30 +06 (02/28 00:30 UTC)
風向・風速南南西 5m/s
視程10km以上
天気現象
全天の8割程度の雲 雲底高度 1370m
気温-3℃
湿度80%
気圧1027hPa
METARUNNT 280030Z 20005MPS 9999 BKN045 M03/M06 Q1027 R25/190050 R16/190060 NOSIG RMK QFE760/1014
過去の天気等 Google飛行場航空写真 Wunderground天気予報

過去48時間のMETAR

飛行場予報(TAF)
発表時間: 2/28 05:00 +06 (2/27 23:00 UTC)
予報対象時間: 28日6時 +06 ~ 1日6時 +06
風向・風速南南西 5m/s 瞬間風速 10m/s
視程10km以上
全天の8割程度の積乱雲 雲底高度 460m
28日6時 +06 ~ 1日6時 +06 に一時的に
視程1,500m
天気現象しゅう雪
全天の8割程度の積乱雲 雲底高度 300m
28日18時 +06 ~ 28日20時 +06 に徐々に
風向・風速南南東 3m/s 瞬間風速 8m/s
TAF UNNT 272300Z 2800/2824 21005G10MPS 9999 BKN015CB
TEMPO 2800/2824 1500 SHSN BKN010CB
BECMG 2812/2814 16003G08MPS